sensor_id;sensor_type;location;lat;lon;timestamp;temperature;humidity
16666;DHT22;8446;50.99880500;6.25021400;2024-03-07T00:01:11;5.90;99.90
16666;DHT22;8446;50.99880500;6.25021400;2024-03-07T00:03:42;5.80;99.90
16666;DHT22;8446;50.99880500;6.25021400;2024-03-07T00:06:14;5.60;99.90
16666;DHT22;8446;50.99880500;6.25021400;2024-03-07T00:08:46;5.80;99.90
16666;DHT22;8446;50.99880500;6.25021400;2024-03-07T00:11:19;5.60;99.90
16666;DHT22;8446;50.99880500;6.25021400;2024-03-07T00:13:52;5.60;99.90
16666;DHT22;8446;50.99880500;6.25021400;2024-03-07T00:16:23;5.60;99.90
16666;DHT22;8446;50.99880500;6.25021400;2024-03-07T00:18:56;5.70;99.90
16666;DHT22;8446;50.99880500;6.25021400;2024-03-07T00:21:28;5.60;99.90
16666;DHT22;8446;50.99880500;6.25021400;2024-03-07T00:24:01;5.70;99.90
16666;DHT22;8446;50.99880500;6.25021400;2024-03-07T00:26:35;5.70;99.90
16666;DHT22;8446;50.99880500;6.25021400;2024-03-07T00:29:08;5.90;99.90
16666;DHT22;8446;50.99880500;6.25021400;2024-03-07T00:31:41;5.80;99.90
16666;DHT22;8446;50.99880500;6.25021400;2024-03-07T00:34:13;5.70;99.90
16666;DHT22;8446;50.99880500;6.25021400;2024-03-07T00:36:46;5.70;99.90
16666;DHT22;8446;50.99880500;6.25021400;2024-03-07T00:39:18;5.60;99.90
16666;DHT22;8446;50.99880500;6.25021400;2024-03-07T00:41:51;5.50;99.90
16666;DHT22;8446;50.99880500;6.25021400;2024-03-07T00:44:24;5.50;99.90
16666;DHT22;8446;50.99880500;6.25021400;2024-03-07T00:46:56;5.50;99.90
16666;DHT22;8446;50.99880500;6.25021400;2024-03-07T00:49:29;5.30;99.90
16666;DHT22;8446;50.99880500;6.25021400;2024-03-07T00:52:01;5.30;99.90
16666;DHT22;8446;50.99880500;6.25021400;2024-03-07T00:54:32;5.40;99.90
16666;DHT22;8446;50.99880500;6.25021400;2024-03-07T00:57:05;5.20;99.90
16666;DHT22;8446;50.99880500;6.25021400;2024-03-07T00:59:39;5.00;99.90
16666;DHT22;8446;50.99880500;6.25021400;2024-03-07T01:02:11;4.90;99.90
16666;DHT22;8446;50.99880500;6.25021400;2024-03-07T01:04:43;4.90;99.90
16666;DHT22;8446;50.99880500;6.25021400;2024-03-07T01:07:15;4.70;99.90
16666;DHT22;8446;50.99880500;6.25021400;2024-03-07T01:09:47;4.80;99.90
16666;DHT22;8446;50.99880500;6.25021400;2024-03-07T01:12:19;4.70;99.90
16666;DHT22;8446;50.99880500;6.25021400;2024-03-07T01:14:55;4.60;99.90
16666;DHT22;8446;50.99880500;6.25021400;2024-03-07T01:17:27;4.70;99.90
16666;DHT22;8446;50.99880500;6.25021400;2024-03-07T01:19:59;4.70;99.90
16666;DHT22;8446;50.99880500;6.25021400;2024-03-07T01:22:35;4.80;99.90
16666;DHT22;8446;50.99880500;6.25021400;2024-03-07T01:25:06;4.70;99.90
16666;DHT22;8446;50.99880500;6.25021400;2024-03-07T01:27:38;4.80;99.90
16666;DHT22;8446;50.99880500;6.25021400;2024-03-07T01:30:12;4.60;99.90
16666;DHT22;8446;50.99880500;6.25021400;2024-03-07T01:32:43;4.60;99.90
16666;DHT22;8446;50.99880500;6.25021400;2024-03-07T01:35:15;4.60;99.90
16666;DHT22;8446;50.99880500;6.25021400;2024-03-07T01:37:47;4.40;99.90
16666;DHT22;8446;50.99880500;6.25021400;2024-03-07T01:40:18;4.40;99.90
16666;DHT22;8446;50.99880500;6.25021400;2024-03-07T01:42:51;4.40;99.90
16666;DHT22;8446;50.99880500;6.25021400;2024-03-07T01:45:24;4.20;99.90
16666;DHT22;8446;50.99880500;6.25021400;2024-03-07T01:47:56;4.30;99.90
16666;DHT22;8446;50.99880500;6.25021400;2024-03-07T01:50:27;4.50;99.90
16666;DHT22;8446;50.99880500;6.25021400;2024-03-07T01:53:00;4.60;99.90
16666;DHT22;8446;50.99880500;6.25021400;2024-03-07T01:55:33;4.30;99.90
16666;DHT22;8446;50.99880500;6.25021400;2024-03-07T01:58:07;4.30;99.90
16666;DHT22;8446;50.99880500;6.25021400;2024-03-07T02:00:41;4.20;99.90
16666;DHT22;8446;50.99880500;6.25021400;2024-03-07T02:03:14;4.30;99.90
16666;DHT22;8446;50.99880500;6.25021400;2024-03-07T02:05:46;4.30;99.90
16666;DHT22;8446;50.99880500;6.25021400;2024-03-07T02:08:18;4.10;99.90
16666;DHT22;8446;50.99880500;6.25021400;2024-03-07T02:10:50;3.90;99.90
16666;DHT22;8446;50.99880500;6.25021400;2024-03-07T02:13:21;4.00;99.90
16666;DHT22;8446;50.99880500;6.25021400;2024-03-07T02:15:55;4.00;99.90
16666;DHT22;8446;50.99880500;6.25021400;2024-03-07T02:18:27;4.10;99.90
16666;DHT22;8446;50.99880500;6.25021400;2024-03-07T02:21:00;4.10;99.90
16666;DHT22;8446;50.99880500;6.25021400;2024-03-07T02:23:32;4.20;99.90
16666;DHT22;8446;50.99880500;6.25021400;2024-03-07T02:26:03;4.30;99.90
16666;DHT22;8446;50.99880500;6.25021400;2024-03-07T02:28:35;4.40;99.90
16666;DHT22;8446;50.99880500;6.25021400;2024-03-07T02:31:07;4.20;99.90
16666;DHT22;8446;50.99880500;6.25021400;2024-03-07T02:33:39;4.20;99.90
16666;DHT22;8446;50.99880500;6.25021400;2024-03-07T02:36:12;4.00;99.90
16666;DHT22;8446;50.99880500;6.25021400;2024-03-07T02:38:43;3.70;99.90
16666;DHT22;8446;50.99880500;6.25021400;2024-03-07T02:41:15;3.80;99.90
16666;DHT22;8446;50.99880500;6.25021400;2024-03-07T02:43:47;3.70;99.90
16666;DHT22;8446;50.99880500;6.25021400;2024-03-07T02:46:19;3.80;99.90
16666;DHT22;8446;50.99880500;6.25021400;2024-03-07T02:48:50;3.60;99.90
16666;DHT22;8446;50.99880500;6.25021400;2024-03-07T02:51:24;3.60;99.90
16666;DHT22;8446;50.99880500;6.25021400;2024-03-07T02:53:55;3.90;99.90
16666;DHT22;8446;50.99880500;6.25021400;2024-03-07T02:56:27;4.10;99.90
16666;DHT22;8446;50.99880500;6.25021400;2024-03-07T02:58:59;4.40;99.90
16666;DHT22;8446;50.99880500;6.25021400;2024-03-07T03:01:30;4.50;99.90
16666;DHT22;8446;50.99880500;6.25021400;2024-03-07T03:04:02;4.50;99.90
16666;DHT22;8446;50.99880500;6.25021400;2024-03-07T03:06:35;4.40;99.90
16666;DHT22;8446;50.99880500;6.25021400;2024-03-07T03:09:07;4.30;99.90
16666;DHT22;8446;50.99880500;6.25021400;2024-03-07T03:11:43;4.20;99.90
16666;DHT22;8446;50.99880500;6.25021400;2024-03-07T03:14:15;4.20;99.90
16666;DHT22;8446;50.99880500;6.25021400;2024-03-07T03:16:47;4.10;99.90
16666;DHT22;8446;50.99880500;6.25021400;2024-03-07T03:19:18;4.10;99.90
16666;DHT22;8446;50.99880500;6.25021400;2024-03-07T03:21:51;4.00;99.90
16666;DHT22;8446;50.99880500;6.25021400;2024-03-07T03:24:23;3.80;99.90
16666;DHT22;8446;50.99880500;6.25021400;2024-03-07T03:26:56;3.80;99.90
16666;DHT22;8446;50.99880500;6.25021400;2024-03-07T03:29:27;3.70;99.90
16666;DHT22;8446;50.99880500;6.25021400;2024-03-07T03:31:59;3.90;99.90
16666;DHT22;8446;50.99880500;6.25021400;2024-03-07T03:34:32;3.80;99.90
16666;DHT22;8446;50.99880500;6.25021400;2024-03-07T03:37:05;3.50;99.90
16666;DHT22;8446;50.99880500;6.25021400;2024-03-07T03:39:37;3.60;99.90
16666;DHT22;8446;50.99880500;6.25021400;2024-03-07T03:42:08;3.70;99.90
16666;DHT22;8446;50.99880500;6.25021400;2024-03-07T03:44:40;3.70;99.90
16666;DHT22;8446;50.99880500;6.25021400;2024-03-07T03:47:12;3.60;99.90
16666;DHT22;8446;50.99880500;6.25021400;2024-03-07T03:49:44;3.60;99.90
16666;DHT22;8446;50.99880500;6.25021400;2024-03-07T03:52:17;3.60;99.90
16666;DHT22;8446;50.99880500;6.25021400;2024-03-07T03:54:49;3.70;99.90
16666;DHT22;8446;50.99880500;6.25021400;2024-03-07T03:57:20;3.60;99.90
16666;DHT22;8446;50.99880500;6.25021400;2024-03-07T03:59:52;3.60;99.90
16666;DHT22;8446;50.99880500;6.25021400;2024-03-07T04:02:25;3.60;99.90
16666;DHT22;8446;50.99880500;6.25021400;2024-03-07T04:04:57;3.50;99.90
16666;DHT22;8446;50.99880500;6.25021400;2024-03-07T04:07:31;3.40;99.90
16666;DHT22;8446;50.99880500;6.25021400;2024-03-07T04:10:04;3.60;99.90
16666;DHT22;8446;50.99880500;6.25021400;2024-03-07T04:12:38;3.60;99.90
16666;DHT22;8446;50.99880500;6.25021400;2024-03-07T04:15:12;3.40;99.90
16666;DHT22;8446;50.99880500;6.25021400;2024-03-07T04:17:47;3.80;99.90
16666;DHT22;8446;50.99880500;6.25021400;2024-03-07T04:20:18;3.70;99.90
16666;DHT22;8446;50.99880500;6.25021400;2024-03-07T04:22:51;3.80;99.90
16666;DHT22;8446;50.99880500;6.25021400;2024-03-07T04:25:23;3.70;99.90
16666;DHT22;8446;50.99880500;6.25021400;2024-03-07T04:27:55;3.60;99.90
16666;DHT22;8446;50.99880500;6.25021400;2024-03-07T04:30:28;3.40;99.90
16666;DHT22;8446;50.99880500;6.25021400;2024-03-07T04:33:00;3.40;99.90
16666;DHT22;8446;50.99880500;6.25021400;2024-03-07T04:35:32;3.60;99.90
16666;DHT22;8446;50.99880500;6.25021400;2024-03-07T04:38:05;3.30;99.90
16666;DHT22;8446;50.99880500;6.25021400;2024-03-07T04:40:41;3.30;99.90
16666;DHT22;8446;50.99880500;6.25021400;2024-03-07T04:43:13;3.20;99.90
16666;DHT22;8446;50.99880500;6.25021400;2024-03-07T04:45:46;3.50;99.90
16666;DHT22;8446;50.99880500;6.25021400;2024-03-07T04:48:18;3.50;99.90
16666;DHT22;8446;50.99880500;6.25021400;2024-03-07T04:50:49;3.50;99.90
16666;DHT22;8446;50.99880500;6.25021400;2024-03-07T04:53:22;3.60;99.90
16666;DHT22;8446;50.99880500;6.25021400;2024-03-07T04:55:54;3.70;99.90
16666;DHT22;8446;50.99880500;6.25021400;2024-03-07T04:58:26;4.10;99.90
16666;DHT22;8446;50.99880500;6.25021400;2024-03-07T05:00:58;4.00;99.90
16666;DHT22;8446;50.99880500;6.25021400;2024-03-07T05:03:31;3.90;99.90
16666;DHT22;8446;50.99880500;6.25021400;2024-03-07T05:06:03;3.90;99.90
16666;DHT22;8446;50.99880500;6.25021400;2024-03-07T05:08:36;4.00;99.90
16666;DHT22;8446;50.99880500;6.25021400;2024-03-07T05:11:08;4.10;99.90
16666;DHT22;8446;50.99880500;6.25021400;2024-03-07T05:13:40;4.00;99.90
16666;DHT22;8446;50.99880500;6.25021400;2024-03-07T05:16:13;4.20;99.90
16666;DHT22;8446;50.99880500;6.25021400;2024-03-07T05:18:44;4.00;99.90
16666;DHT22;8446;50.99880500;6.25021400;2024-03-07T05:21:16;4.10;99.90
16666;DHT22;8446;50.99880500;6.25021400;2024-03-07T05:24:09;4.10;99.90
16666;DHT22;8446;50.99880500;6.25021400;2024-03-07T05:26:41;4.00;99.90
16666;DHT22;8446;50.99880500;6.25021400;2024-03-07T05:29:12;4.00;99.90
16666;DHT22;8446;50.99880500;6.25021400;2024-03-07T05:31:44;3.90;99.90
16666;DHT22;8446;50.99880500;6.25021400;2024-03-07T05:34:17;4.00;99.90
16666;DHT22;8446;50.99880500;6.25021400;2024-03-07T05:36:49;4.00;99.90
16666;DHT22;8446;50.99880500;6.25021400;2024-03-07T05:39:23;4.00;99.90
16666;DHT22;8446;50.99880500;6.25021400;2024-03-07T05:41:54;4.00;99.90
16666;DHT22;8446;50.99880500;6.25021400;2024-03-07T05:44:27;3.90;99.90
16666;DHT22;8446;50.99880500;6.25021400;2024-03-07T05:46:59;3.90;99.90
16666;DHT22;8446;50.99880500;6.25021400;2024-03-07T05:49:31;3.70;99.90
16666;DHT22;8446;50.99880500;6.25021400;2024-03-07T05:52:03;3.60;99.90
16666;DHT22;8446;50.99880500;6.25021400;2024-03-07T05:54:37;3.50;99.90
16666;DHT22;8446;50.99880500;6.25021400;2024-03-07T05:57:09;3.60;99.90
16666;DHT22;8446;50.99880500;6.25021400;2024-03-07T05:59:42;3.70;99.90
16666;DHT22;8446;50.99880500;6.25021400;2024-03-07T06:02:13;3.60;99.90
16666;DHT22;8446;50.99880500;6.25021400;2024-03-07T06:04:45;3.60;99.90
16666;DHT22;8446;50.99880500;6.25021400;2024-03-07T06:07:17;3.50;99.90
16666;DHT22;8446;50.99880500;6.25021400;2024-03-07T06:09:50;3.60;99.90
16666;DHT22;8446;50.99880500;6.25021400;2024-03-07T06:12:22;3.60;99.90
16666;DHT22;8446;50.99880500;6.25021400;2024-03-07T06:14:54;3.50;99.90
16666;DHT22;8446;50.99880500;6.25021400;2024-03-07T06:17:26;3.40;99.90
16666;DHT22;8446;50.99880500;6.25021400;2024-03-07T06:19:58;3.50;99.90
16666;DHT22;8446;50.99880500;6.25021400;2024-03-07T06:22:30;3.50;99.90
16666;DHT22;8446;50.99880500;6.25021400;2024-03-07T06:25:03;3.30;99.90
16666;DHT22;8446;50.99880500;6.25021400;2024-03-07T06:27:37;3.30;99.90
16666;DHT22;8446;50.99880500;6.25021400;2024-03-07T06:30:18;3.30;99.90
16666;DHT22;8446;50.99880500;6.25021400;2024-03-07T06:32:49;3.10;99.90
16666;DHT22;8446;50.99880500;6.25021400;2024-03-07T06:35:21;3.10;99.90
16666;DHT22;8446;50.99880500;6.25021400;2024-03-07T06:37:53;3.10;99.90
16666;DHT22;8446;50.99880500;6.25021400;2024-03-07T06:40:27;2.90;99.90
16666;DHT22;8446;50.99880500;6.25021400;2024-03-07T06:42:59;2.90;99.90
16666;DHT22;8446;50.99880500;6.25021400;2024-03-07T06:45:31;2.90;99.90
16666;DHT22;8446;50.99880500;6.25021400;2024-03-07T06:48:04;3.00;99.90
16666;DHT22;8446;50.99880500;6.25021400;2024-03-07T06:50:37;3.00;99.90
16666;DHT22;8446;50.99880500;6.25021400;2024-03-07T06:53:09;3.00;99.90
16666;DHT22;8446;50.99880500;6.25021400;2024-03-07T06:55:42;3.00;99.90
16666;DHT22;8446;50.99880500;6.25021400;2024-03-07T06:58:14;3.00;99.90
16666;DHT22;8446;50.99880500;6.25021400;2024-03-07T07:00:47;3.00;99.90
16666;DHT22;8446;50.99880500;6.25021400;2024-03-07T07:03:19;3.00;99.90
16666;DHT22;8446;50.99880500;6.25021400;2024-03-07T07:05:50;3.00;99.90
16666;DHT22;8446;50.99880500;6.25021400;2024-03-07T07:08:22;3.20;99.90
16666;DHT22;8446;50.99880500;6.25021400;2024-03-07T07:10:55;3.20;99.90
16666;DHT22;8446;50.99880500;6.25021400;2024-03-07T07:13:28;3.40;99.90
16666;DHT22;8446;50.99880500;6.25021400;2024-03-07T07:15:59;3.50;99.90
16666;DHT22;8446;50.99880500;6.25021400;2024-03-07T07:18:31;3.60;99.90
16666;DHT22;8446;50.99880500;6.25021400;2024-03-07T07:21:03;3.60;99.90
16666;DHT22;8446;50.99880500;6.25021400;2024-03-07T07:23:36;3.60;99.90
16666;DHT22;8446;50.99880500;6.25021400;2024-03-07T07:26:10;3.60;99.90
16666;DHT22;8446;50.99880500;6.25021400;2024-03-07T07:28:41;3.60;99.90
16666;DHT22;8446;50.99880500;6.25021400;2024-03-07T07:31:13;3.70;99.90
16666;DHT22;8446;50.99880500;6.25021400;2024-03-07T07:33:45;3.80;99.90
16666;DHT22;8446;50.99880500;6.25021400;2024-03-07T07:36:17;3.90;99.90
16666;DHT22;8446;50.99880500;6.25021400;2024-03-07T07:38:49;4.00;99.90
16666;DHT22;8446;50.99880500;6.25021400;2024-03-07T07:41:22;4.00;99.90
16666;DHT22;8446;50.99880500;6.25021400;2024-03-07T07:43:54;4.10;99.90
16666;DHT22;8446;50.99880500;6.25021400;2024-03-07T07:46:26;4.10;99.90
16666;DHT22;8446;50.99880500;6.25021400;2024-03-07T07:48:58;4.20;99.90
16666;DHT22;8446;50.99880500;6.25021400;2024-03-07T07:51:30;4.30;99.90
16666;DHT22;8446;50.99880500;6.25021400;2024-03-07T07:54:02;4.30;99.90
16666;DHT22;8446;50.99880500;6.25021400;2024-03-07T07:56:35;4.40;99.90
16666;DHT22;8446;50.99880500;6.25021400;2024-03-07T07:59:07;4.50;99.90
16666;DHT22;8446;50.99880500;6.25021400;2024-03-07T08:01:39;4.60;99.90
16666;DHT22;8446;50.99880500;6.25021400;2024-03-07T08:04:11;4.70;99.90
16666;DHT22;8446;50.99880500;6.25021400;2024-03-07T08:06:43;4.80;99.90
16666;DHT22;8446;50.99880500;6.25021400;2024-03-07T08:09:15;4.90;99.90
16666;DHT22;8446;50.99880500;6.25021400;2024-03-07T08:11:48;5.00;99.90
16666;DHT22;8446;50.99880500;6.25021400;2024-03-07T08:14:20;5.20;99.90
16666;DHT22;8446;50.99880500;6.25021400;2024-03-07T08:16:52;5.30;99.90
16666;DHT22;8446;50.99880500;6.25021400;2024-03-07T08:19:24;5.40;99.90
16666;DHT22;8446;50.99880500;6.25021400;2024-03-07T08:21:55;5.50;99.90
16666;DHT22;8446;50.99880500;6.25021400;2024-03-07T08:24:27;5.70;99.90
16666;DHT22;8446;50.99880500;6.25021400;2024-03-07T08:27:00;5.70;99.90
16666;DHT22;8446;50.99880500;6.25021400;2024-03-07T08:29:34;5.70;99.90
16666;DHT22;8446;50.99880500;6.25021400;2024-03-07T08:32:07;5.60;99.90
16666;DHT22;8446;50.99880500;6.25021400;2024-03-07T08:34:39;5.40;99.90
16666;DHT22;8446;50.99880500;6.25021400;2024-03-07T08:37:10;5.50;99.90
16666;DHT22;8446;50.99880500;6.25021400;2024-03-07T08:39:43;5.50;99.90
16666;DHT22;8446;50.99880500;6.25021400;2024-03-07T08:42:16;5.70;99.90
16666;DHT22;8446;50.99880500;6.25021400;2024-03-07T08:44:48;5.90;99.90
16666;DHT22;8446;50.99880500;6.25021400;2024-03-07T08:47:20;5.90;99.90
16666;DHT22;8446;50.99880500;6.25021400;2024-03-07T08:49:52;6.00;99.90
16666;DHT22;8446;50.99880500;6.25021400;2024-03-07T08:52:24;6.10;99.90
16666;DHT22;8446;50.99880500;6.25021400;2024-03-07T08:54:55;6.00;99.90
16666;DHT22;8446;50.99880500;6.25021400;2024-03-07T08:57:28;6.10;99.90
16666;DHT22;8446;50.99880500;6.25021400;2024-03-07T09:00:00;6.00;99.90
16666;DHT22;8446;50.99880500;6.25021400;2024-03-07T09:02:38;6.20;99.90
16666;DHT22;8446;50.99880500;6.25021400;2024-03-07T09:05:10;6.30;99.90
16666;DHT22;8446;50.99880500;6.25021400;2024-03-07T09:07:42;6.40;99.90
16666;DHT22;8446;50.99880500;6.25021400;2024-03-07T09:10:15;6.20;99.90
16666;DHT22;8446;50.99880500;6.25021400;2024-03-07T09:12:50;6.30;99.90
16666;DHT22;8446;50.99880500;6.25021400;2024-03-07T09:15:23;6.40;99.90
16666;DHT22;8446;50.99880500;6.25021400;2024-03-07T09:17:55;6.30;99.90
16666;DHT22;8446;50.99880500;6.25021400;2024-03-07T09:20:28;6.50;99.90
16666;DHT22;8446;50.99880500;6.25021400;2024-03-07T09:23:01;6.60;99.90
16666;DHT22;8446;50.99880500;6.25021400;2024-03-07T09:25:33;6.60;99.90
16666;DHT22;8446;50.99880500;6.25021400;2024-03-07T09:28:06;7.00;99.90
16666;DHT22;8446;50.99880500;6.25021400;2024-03-07T09:30:38;7.00;99.90
16666;DHT22;8446;50.99880500;6.25021400;2024-03-07T09:33:10;7.00;99.90
16666;DHT22;8446;50.99880500;6.25021400;2024-03-07T09:35:42;7.30;99.90
16666;DHT22;8446;50.99880500;6.25021400;2024-03-07T09:38:13;7.50;99.90
16666;DHT22;8446;50.99880500;6.25021400;2024-03-07T09:40:46;7.50;99.90
16666;DHT22;8446;50.99880500;6.25021400;2024-03-07T09:43:20;7.80;99.90
16666;DHT22;8446;50.99880500;6.25021400;2024-03-07T09:45:52;8.10;99.90
16666;DHT22;8446;50.99880500;6.25021400;2024-03-07T09:48:24;8.20;99.90
16666;DHT22;8446;50.99880500;6.25021400;2024-03-07T09:51:00;8.70;99.90
16666;DHT22;8446;50.99880500;6.25021400;2024-03-07T09:53:34;8.20;99.90
16666;DHT22;8446;50.99880500;6.25021400;2024-03-07T09:56:08;8.00;99.90
16666;DHT22;8446;50.99880500;6.25021400;2024-03-07T09:58:48;8.10;99.90
16666;DHT22;8446;50.99880500;6.25021400;2024-03-07T10:01:21;8.40;99.90
16666;DHT22;8446;50.99880500;6.25021400;2024-03-07T10:03:58;8.40;99.90
16666;DHT22;8446;50.99880500;6.25021400;2024-03-07T10:06:32;8.40;99.90
16666;DHT22;8446;50.99880500;6.25021400;2024-03-07T10:09:04;8.70;99.90
16666;DHT22;8446;50.99880500;6.25021400;2024-03-07T10:11:37;9.10;99.90
16666;DHT22;8446;50.99880500;6.25021400;2024-03-07T10:14:10;8.80;99.90
16666;DHT22;8446;50.99880500;6.25021400;2024-03-07T10:16:42;8.90;99.90
16666;DHT22;8446;50.99880500;6.25021400;2024-03-07T10:19:14;9.20;99.90
16666;DHT22;8446;50.99880500;6.25021400;2024-03-07T10:21:45;9.10;99.90
16666;DHT22;8446;50.99880500;6.25021400;2024-03-07T10:24:17;8.80;99.90
16666;DHT22;8446;50.99880500;6.25021400;2024-03-07T10:26:55;9.10;99.90
16666;DHT22;8446;50.99880500;6.25021400;2024-03-07T10:29:29;9.00;99.90
16666;DHT22;8446;50.99880500;6.25021400;2024-03-07T10:32:11;9.10;99.90
16666;DHT22;8446;50.99880500;6.25021400;2024-03-07T10:34:43;9.40;99.90
16666;DHT22;8446;50.99880500;6.25021400;2024-03-07T10:37:16;9.70;99.90
16666;DHT22;8446;50.99880500;6.25021400;2024-03-07T10:39:49;9.20;99.90
16666;DHT22;8446;50.99880500;6.25021400;2024-03-07T10:42:21;8.80;99.90
16666;DHT22;8446;50.99880500;6.25021400;2024-03-07T10:45:03;8.80;99.90
16666;DHT22;8446;50.99880500;6.25021400;2024-03-07T10:47:37;8.80;99.90
16666;DHT22;8446;50.99880500;6.25021400;2024-03-07T10:50:15;8.50;99.90
16666;DHT22;8446;50.99880500;6.25021400;2024-03-07T10:52:54;9.00;99.90
16666;DHT22;8446;50.99880500;6.25021400;2024-03-07T10:55:34;8.90;99.90
16666;DHT22;8446;50.99880500;6.25021400;2024-03-07T10:58:12;9.00;99.90
16666;DHT22;8446;50.99880500;6.25021400;2024-03-07T11:00:47;9.00;99.90
16666;DHT22;8446;50.99880500;6.25021400;2024-03-07T11:03:19;9.00;99.90
16666;DHT22;8446;50.99880500;6.25021400;2024-03-07T11:05:52;9.00;99.90
16666;DHT22;8446;50.99880500;6.25021400;2024-03-07T11:08:25;9.50;99.90
16666;DHT22;8446;50.99880500;6.25021400;2024-03-07T11:10:57;9.40;99.90
16666;DHT22;8446;50.99880500;6.25021400;2024-03-07T11:13:30;9.20;99.90
16666;DHT22;8446;50.99880500;6.25021400;2024-03-07T11:16:04;8.70;99.90
16666;DHT22;8446;50.99880500;6.25021400;2024-03-07T11:18:36;8.90;99.90
16666;DHT22;8446;50.99880500;6.25021400;2024-03-07T11:21:42;9.00;99.90
16666;DHT22;8446;50.99880500;6.25021400;2024-03-07T11:24:23;9.50;99.90
16666;DHT22;8446;50.99880500;6.25021400;2024-03-07T11:26:56;9.20;99.90
16666;DHT22;8446;50.99880500;6.25021400;2024-03-07T11:29:47;9.40;99.90
16666;DHT22;8446;50.99880500;6.25021400;2024-03-07T11:32:24;9.50;99.90
16666;DHT22;8446;50.99880500;6.25021400;2024-03-07T11:34:57;9.30;99.90
16666;DHT22;8446;50.99880500;6.25021400;2024-03-07T11:37:39;9.30;99.90
16666;DHT22;8446;50.99880500;6.25021400;2024-03-07T11:40:43;9.40;99.90
16666;DHT22;8446;50.99880500;6.25021400;2024-03-07T11:43:15;10.10;99.90
16666;DHT22;8446;50.99880500;6.25021400;2024-03-07T11:45:46;9.90;99.90
16666;DHT22;8446;50.99880500;6.25021400;2024-03-07T11:48:24;9.90;99.90
16666;DHT22;8446;50.99880500;6.25021400;2024-03-07T11:50:56;10.10;99.90
16666;DHT22;8446;50.99880500;6.25021400;2024-03-07T11:53:27;10.40;99.90
16666;DHT22;8446;50.99880500;6.25021400;2024-03-07T11:55:59;10.60;99.90
16666;DHT22;8446;50.99880500;6.25021400;2024-03-07T11:58:40;10.20;99.90
16666;DHT22;8446;50.99880500;6.25021400;2024-03-07T12:01:12;10.40;99.90
16666;DHT22;8446;50.99880500;6.25021400;2024-03-07T12:03:45;10.50;99.90
16666;DHT22;8446;50.99880500;6.25021400;2024-03-07T12:06:23;10.20;99.90
16666;DHT22;8446;50.99880500;6.25021400;2024-03-07T12:08:56;11.10;99.90
16666;DHT22;8446;50.99880500;6.25021400;2024-03-07T12:11:29;11.30;99.90
16666;DHT22;8446;50.99880500;6.25021400;2024-03-07T12:14:01;11.10;99.90
16666;DHT22;8446;50.99880500;6.25021400;2024-03-07T12:16:34;11.10;99.90
16666;DHT22;8446;50.99880500;6.25021400;2024-03-07T12:19:07;11.00;99.90
16666;DHT22;8446;50.99880500;6.25021400;2024-03-07T12:21:40;10.30;99.90
16666;DHT22;8446;50.99880500;6.25021400;2024-03-07T12:24:13;10.70;99.90
16666;DHT22;8446;50.99880500;6.25021400;2024-03-07T12:26:45;10.40;99.90
16666;DHT22;8446;50.99880500;6.25021400;2024-03-07T12:29:18;10.00;99.90
16666;DHT22;8446;50.99880500;6.25021400;2024-03-07T12:31:50;9.80;99.90
16666;DHT22;8446;50.99880500;6.25021400;2024-03-07T12:34:24;9.90;99.90
16666;DHT22;8446;50.99880500;6.25021400;2024-03-07T12:36:58;10.10;99.90
16666;DHT22;8446;50.99880500;6.25021400;2024-03-07T12:39:32;10.10;99.90
16666;DHT22;8446;50.99880500;6.25021400;2024-03-07T12:42:06;10.30;99.90
16666;DHT22;8446;50.99880500;6.25021400;2024-03-07T12:44:41;10.30;99.90
16666;DHT22;8446;50.99880500;6.25021400;2024-03-07T12:47:15;10.80;99.90
16666;DHT22;8446;50.99880500;6.25021400;2024-03-07T12:49:48;10.60;99.90
16666;DHT22;8446;50.99880500;6.25021400;2024-03-07T12:52:20;10.50;99.90
16666;DHT22;8446;50.99880500;6.25021400;2024-03-07T12:54:52;10.80;99.90
16666;DHT22;8446;50.99880500;6.25021400;2024-03-07T12:57:26;10.70;99.90
16666;DHT22;8446;50.99880500;6.25021400;2024-03-07T12:59:58;11.00;99.90
16666;DHT22;8446;50.99880500;6.25021400;2024-03-07T13:02:30;11.00;99.90
16666;DHT22;8446;50.99880500;6.25021400;2024-03-07T13:05:03;10.40;99.90
16666;DHT22;8446;50.99880500;6.25021400;2024-03-07T13:07:35;10.10;99.90
16666;DHT22;8446;50.99880500;6.25021400;2024-03-07T13:10:08;9.90;99.90
16666;DHT22;8446;50.99880500;6.25021400;2024-03-07T13:12:41;10.00;99.90
16666;DHT22;8446;50.99880500;6.25021400;2024-03-07T13:15:16;10.30;99.90
16666;DHT22;8446;50.99880500;6.25021400;2024-03-07T13:17:48;10.20;99.90
16666;DHT22;8446;50.99880500;6.25021400;2024-03-07T13:20:25;10.10;99.90
16666;DHT22;8446;50.99880500;6.25021400;2024-03-07T13:22:57;10.10;99.90
16666;DHT22;8446;50.99880500;6.25021400;2024-03-07T13:25:31;10.00;99.90
16666;DHT22;8446;50.99880500;6.25021400;2024-03-07T13:28:06;9.90;99.90
16666;DHT22;8446;50.99880500;6.25021400;2024-03-07T13:30:39;10.00;99.90
16666;DHT22;8446;50.99880500;6.25021400;2024-03-07T13:33:11;9.80;99.90
16666;DHT22;8446;50.99880500;6.25021400;2024-03-07T13:35:45;9.90;99.90
16666;DHT22;8446;50.99880500;6.25021400;2024-03-07T13:38:17;9.70;99.90
16666;DHT22;8446;50.99880500;6.25021400;2024-03-07T13:40:49;9.60;99.90
16666;DHT22;8446;50.99880500;6.25021400;2024-03-07T13:43:20;9.70;99.90
16666;DHT22;8446;50.99880500;6.25021400;2024-03-07T13:45:52;10.00;99.90
16666;DHT22;8446;50.99880500;6.25021400;2024-03-07T13:48:24;10.10;99.90
16666;DHT22;8446;50.99880500;6.25021400;2024-03-07T13:50:57;10.20;99.90
16666;DHT22;8446;50.99880500;6.25021400;2024-03-07T13:53:30;11.10;99.90
16666;DHT22;8446;50.99880500;6.25021400;2024-03-07T13:56:33;11.70;99.90
16666;DHT22;8446;50.99880500;6.25021400;2024-03-07T14:06:00;11.70;99.90
16666;DHT22;8446;50.99880500;6.25021400;2024-03-07T14:09:13;11.60;99.90
16666;DHT22;8446;50.99880500;6.25021400;2024-03-07T14:12:13;11.00;99.90
16666;DHT22;8446;50.99880500;6.25021400;2024-03-07T14:21:39;10.50;99.90
16666;DHT22;8446;50.99880500;6.25021400;2024-03-07T14:27:38;10.40;99.90
16666;DHT22;8446;50.99880500;6.25021400;2024-03-07T14:30:24;10.20;99.90
16666;DHT22;8446;50.99880500;6.25021400;2024-03-07T14:33:00;10.20;99.90
16666;DHT22;8446;50.99880500;6.25021400;2024-03-07T14:35:35;10.10;99.90